Time;durP1;ratioP1;P1;durP2;ratioP2;P2;SDS_P1;SDS_P2;PMS_P1;PMS_P2;Temp;Humidity;BMP_temperature;BMP_pressure;BME280_temperature;BME280_humidity;BME280_pressure;Samples;Min_cycle;Max_cycle;Signal;HPM_P1;HPM_P2
2023/06/12 00:00:52;;;;;;;7.70;4.50;;;;;;;15.89;70.01;98194.15;107911;1275;24193;-81
2023/06/12 00:03:42;;;;;;;7.60;4.60;;;;;;;15.80;70.16;98192.55;107199;1275;22528;-83
2023/06/12 00:06:11;;;;;;;10.00;5.50;;;;;;;15.84;70.84;98189.15;107192;1275;25211;-81
2023/06/12 00:08:43;;;;;;;7.40;4.90;;;;;;;15.82;70.86;98192.95;107211;1263;22521;-83
2023/06/12 00:11:14;;;;;;;6.40;4.70;;;;;;;15.74;70.76;98190.30;107192;1275;25319;-82
2023/06/12 00:13:45;;;;;;;9.90;4.80;;;;;;;15.75;71.49;98191.14;107178;1275;25223;-81
2023/06/12 00:16:15;;;;;;;6.60;5.00;;;;;;;15.77;71.49;98187.95;107235;1267;23235;-82
2023/06/12 00:18:44;;;;;;;9.20;5.20;;;;;;;15.73;71.12;98190.56;107258;1275;25226;-82
2023/06/12 00:21:12;;;;;;;8.20;5.00;;;;;;;15.65;71.18;98186.85;107151;1275;22518;-82
2023/06/12 00:23:41;;;;;;;6.30;5.50;;;;;;;15.66;71.51;98188.23;107123;1275;22609;-81
2023/06/12 00:26:09;;;;;;;7.00;5.40;;;;;;;15.70;71.02;98186.33;107201;1275;22513;-82
2023/06/12 00:28:41;;;;;;;6.60;5.00;;;;;;;15.62;70.70;98189.23;107146;1275;23892;-82
2023/06/12 00:31:09;;;;;;;8.90;4.80;;;;;;;15.46;70.76;98188.34;107154;1275;22517;-82
2023/06/12 00:33:40;;;;;;;7.20;5.50;;;;;;;15.38;71.31;98184.98;107192;1275;26579;-82
2023/06/12 00:36:08;;;;;;;6.40;5.10;;;;;;;15.23;71.85;98178.91;107160;1264;22520;-82
2023/06/12 00:38:36;;;;;;;6.20;5.20;;;;;;;15.26;72.18;98180.94;107098;1275;24255;-82
2023/06/12 00:41:04;;;;;;;8.60;4.90;;;;;;;15.27;71.93;98181.69;107175;1275;25322;-82
2023/06/12 00:43:33;;;;;;;7.30;4.80;;;;;;;15.29;72.06;98186.69;107147;1272;22556;-82
2023/06/12 00:46:01;;;;;;;6.10;4.70;;;;;;;15.37;71.84;98183.05;107156;1275;24262;-83
2023/06/12 00:48:30;;;;;;;8.70;4.50;;;;;;;15.49;72.41;98184.56;107246;1275;22557;-86
2023/06/12 00:50:59;;;;;;;6.10;4.20;;;;;;;15.52;71.73;98183.54;107305;1275;23301;-81
2023/06/12 00:53:28;;;;;;;8.20;4.70;;;;;;;15.59;71.88;98185.14;107225;1275;22558;-85
2023/06/12 00:55:57;;;;;;;8.90;5.10;;;;;;;15.61;71.62;98187.02;107211;1275;22976;-84
2023/06/12 00:58:25;;;;;;;11.90;4.90;;;;;;;15.40;71.38;98192.30;107090;1275;23253;-83
2023/06/12 01:00:57;;;;;;;5.50;4.50;;;;;;;15.31;71.78;98190.58;107048;1275;24190;-83
2023/06/12 01:03:26;;;;;;;7.80;5.20;;;;;;;15.34;72.04;98189.91;107055;1275;22582;-83
2023/06/12 01:05:55;;;;;;;8.30;4.40;;;;;;;15.42;71.90;98186.75;107130;1275;24187;-84
2023/06/12 01:08:32;;;;;;;9.10;4.80;;;;;;;15.42;71.82;98184.29;107262;1275;22534;-83
2023/06/12 01:11:07;;;;;;;7.10;4.70;;;;;;;15.24;71.39;98183.05;107253;1275;22652;-79
2023/06/12 01:13:36;;;;;;;5.00;4.30;;;;;;;14.92;71.68;98183.12;107162;1275;22530;-78
2023/06/12 01:16:04;;;;;;;5.80;4.30;;;;;;;14.67;72.13;98181.30;107211;1275;22531;-78
2023/06/12 01:18:33;;;;;;;8.10;4.80;;;;;;;14.55;73.05;98183.30;107177;1275;24212;-78
2023/06/12 01:21:07;;;;;;;9.80;5.30;;;;;;;14.46;72.86;98181.18;107149;1275;25356;-77
2023/06/12 01:23:39;;;;;;;7.00;5.40;;;;;;;14.46;73.51;98181.95;107084;1275;22532;-77
2023/06/12 01:26:21;;;;;;;7.10;4.70;;;;;;;14.49;73.44;98180.07;107124;1275;24241;-77
2023/06/12 01:28:52;;;;;;;9.80;5.10;;;;;;;14.48;73.60;98182.59;107029;1275;22606;-77
2023/06/12 01:31:31;;;;;;;5.90;4.50;;;;;;;14.43;73.89;98185.56;107157;1275;22532;-77
2023/06/12 01:34:12;;;;;;;8.10;4.80;;;;;;;14.39;73.33;98185.52;107142;1275;22646;-77
2023/06/12 01:36:48;;;;;;;10.30;5.10;;;;;;;14.21;73.37;98186.59;107185;1275;22542;-77
2023/06/12 01:39:17;;;;;;;7.90;5.00;;;;;;;13.96;73.89;98183.07;107124;1275;25204;-77
2023/06/12 01:41:46;;;;;;;7.10;4.90;;;;;;;13.80;73.93;98183.55;107065;1275;22641;-77
2023/06/12 01:44:16;;;;;;;9.30;5.60;;;;;;;13.82;76.09;98181.23;107179;1275;24199;-77
2023/06/12 01:46:44;;;;;;;15.30;4.90;;;;;;;14.05;75.40;98176.09;107167;1275;23263;-77
2023/06/12 01:49:13;;;;;;;6.30;4.40;;;;;;;13.96;74.32;98185.02;107108;1275;22989;-76
2023/06/12 01:51:41;;;;;;;8.50;5.10;;;;;;;13.88;75.28;98186.48;107143;1275;25421;-77
2023/06/12 01:54:09;;;;;;;7.40;5.60;;;;;;;13.80;75.09;98193.30;106940;1253;22608;-75
2023/06/12 01:56:43;;;;;;;7.50;4.60;;;;;;;13.71;75.11;98191.55;106859;1275;23943;-76
2023/06/12 01:59:12;;;;;;;6.60;5.10;;;;;;;13.73;77.71;98192.58;106916;1275;22532;-75
2023/06/12 02:01:45;;;;;;;11.60;5.30;;;;;;;13.87;76.49;98189.00;106937;1275;22527;-77
2023/06/12 02:04:14;;;;;;;9.00;6.10;;;;;;;13.94;76.17;98187.34;107205;1275;22520;-75
2023/06/12 02:06:42;;;;;;;8.30;5.00;;;;;;;13.96;75.69;98193.21;106918;1275;22553;-77
2023/06/12 02:09:11;;;;;;;8.90;5.40;;;;;;;13.91;75.99;98195.93;107180;1275;22589;-77
2023/06/12 02:11:39;;;;;;;9.90;5.70;;;;;;;13.83;76.24;98193.84;107030;1275;22603;-76
2023/06/12 02:14:07;;;;;;;7.00;5.40;;;;;;;13.75;76.04;98192.53;106836;1275;22647;-76
2023/06/12 02:16:35;;;;;;;7.00;5.40;;;;;;;13.79;79.28;98195.73;106934;1275;22668;-76
2023/06/12 02:19:04;;;;;;;7.50;5.00;;;;;;;13.96;77.12;98189.83;107185;1275;22708;-76
2023/06/12 02:21:34;;;;;;;6.70;4.50;;;;;;;13.92;76.68;98188.48;106948;1275;22518;-76
2023/06/12 02:24:02;;;;;;;8.60;5.20;;;;;;;14.02;77.34;98187.23;106871;1275;22597;-77
2023/06/12 02:26:31;;;;;;;12.00;5.60;;;;;;;14.03;76.95;98189.26;106811;1275;24551;-77
2023/06/12 02:29:08;;;;;;;8.20;6.00;;;;;;;13.87;76.70;98196.27;107127;1275;23601;-75
2023/06/12 02:31:39;;;;;;;6.70;4.90;;;;;;;13.77;76.69;98193.77;106852;1275;25550;-75
2023/06/12 02:34:08;;;;;;;8.20;5.60;;;;;;;13.81;77.20;98197.77;106866;1275;25337;-76
2023/06/12 02:36:39;;;;;;;5.10;4.50;;;;;;;13.71;76.93;98197.27;106818;1275;26227;-76
2023/06/12 02:39:13;;;;;;;10.20;5.30;;;;;;;13.70;77.78;98201.45;106872;1275;22514;-76
2023/06/12 02:41:45;;;;;;;5.90;4.90;;;;;;;13.73;77.76;98203.03;107202;1275;24679;-76
2023/06/12 02:44:14;;;;;;;5.70;4.60;;;;;;;13.73;77.24;98207.90;106933;1275;22641;-76
2023/06/12 02:46:58;;;;;;;8.60;5.10;;;;;;;13.71;77.48;98207.41;106856;1275;22538;-77
2023/06/12 02:49:45;;;;;;;6.50;4.60;;;;;;;13.76;77.56;98211.19;106900;1275;24096;-77
2023/06/12 02:52:18;;;;;;;8.60;4.60;;;;;;;13.84;77.87;98213.55;106889;1275;22704;-77
2023/06/12 02:54:46;;;;;;;8.30;4.90;;;;;;;13.98;77.72;98211.08;106870;1275;24221;-77
2023/06/12 02:57:14;;;;;;;6.70;4.40;;;;;;;14.10;77.29;98211.87;107168;1275;25471;-77
2023/06/12 02:59:42;;;;;;;7.10;5.70;;;;;;;14.06;77.13;98219.29;107064;1275;22892;-77
2023/06/12 03:02:14;;;;;;;6.80;5.60;;;;;;;14.11;78.77;98221.05;107128;1275;22574;-77
2023/06/12 03:04:46;;;;;;;7.60;4.40;;;;;;;14.21;77.41;98217.87;107164;1272;22570;-77
2023/06/12 03:07:16;;;;;;;5.20;4.70;;;;;;;14.26;77.38;98217.40;107225;1275;22531;-77
2023/06/12 03:09:45;;;;;;;6.50;4.20;;;;;;;14.32;78.43;98222.21;107149;1275;24216;-77
2023/06/12 03:12:14;;;;;;;8.50;4.90;;;;;;;14.47;77.25;98227.56;107233;1275;22726;-76
2023/06/12 03:14:43;;;;;;;6.60;4.80;;;;;;;14.28;76.78;98227.20;106916;1275;22570;-75
2023/06/12 03:17:11;;;;;;;6.40;4.80;;;;;;;14.16;76.78;98234.42;107171;1275;25309;-75
2023/06/12 03:19:39;;;;;;;7.30;5.20;;;;;;;14.08;76.90;98235.69;106864;1275;22632;-76
2023/06/12 03:22:07;;;;;;;7.50;5.20;;;;;;;13.96;77.37;98235.83;106832;1275;22521;-74
2023/06/12 03:24:37;;;;;;;8.60;4.70;;;;;;;14.01;78.35;98231.64;106921;1275;23363;-78
2023/06/12 03:27:05;;;;;;;7.00;4.60;;;;;;;14.13;78.06;98233.68;106941;1275;25307;-75
2023/06/12 03:29:34;;;;;;;5.50;4.70;;;;;;;14.29;78.22;98233.41;106877;1275;22816;-76
2023/06/12 03:32:03;;;;;;;4.80;4.00;;;;;;;14.26;77.04;98232.58;106967;1275;22604;-75
2023/06/12 03:34:38;;;;;;;6.20;4.80;;;;;;;14.16;76.92;98240.23;106976;1275;22641;-76
2023/06/12 03:37:06;;;;;;;7.60;4.90;;;;;;;14.07;77.28;98240.52;107124;1275;24297;-76
2023/06/12 03:39:35;;;;;;;7.20;4.70;;;;;;;14.05;76.51;98244.09;107137;1275;22788;-76
2023/06/12 03:42:03;;;;;;;7.80;5.00;;;;;;;13.97;77.24;98240.85;106816;1275;22667;-75
2023/06/12 03:44:40;;;;;;;10.60;5.00;;;;;;;13.93;77.01;98239.44;106901;1263;22517;-75
2023/06/12 03:47:08;;;;;;;6.60;4.60;;;;;;;13.81;77.04;98235.25;106789;1275;24369;-75
2023/06/12 03:49:36;;;;;;;8.00;4.90;;;;;;;13.73;77.70;98234.22;106878;1275;22845;-76
2023/06/12 03:52:04;;;;;;;8.00;4.90;;;;;;;13.80;78.98;98232.47;106891;1275;25056;-75
2023/06/12 03:54:36;;;;;;;8.10;5.30;;;;;;;13.93;77.71;98236.14;106980;1275;22639;-75
2023/06/12 03:57:05;;;;;;;6.70;4.70;;;;;;;13.99;77.57;98236.19;106952;1269;22593;-76
2023/06/12 03:59:33;;;;;;;5.30;4.50;;;;;;;14.14;78.10;98241.15;106811;1275;22631;-75
2023/06/12 04:02:02;;;;;;;7.50;4.90;;;;;;;14.37;78.03;98239.54;106922;1275;22574;-76
2023/06/12 04:04:32;;;;;;;6.50;4.70;;;;;;;14.45;77.94;98240.80;106884;1275;25322;-77
2023/06/12 04:07:00;;;;;;;6.00;4.70;;;;;;;14.53;77.84;98237.02;107144;1275;24244;-77
2023/06/12 04:09:28;;;;;;;7.40;5.50;;;;;;;14.66;78.18;98231.86;106945;1275;22829;-77
2023/06/12 04:11:56;;;;;;;6.70;5.20;;;;;;;14.71;77.28;98229.55;107055;1275;25098;-77
2023/06/12 04:14:25;;;;;;;9.50;4.80;;;;;;;14.75;77.32;98231.83;106886;1275;22510;-76
2023/06/12 04:16:53;;;;;;;10.00;5.10;;;;;;;14.92;77.59;98233.59;106861;1275;23152;-75
2023/06/12 04:19:21;;;;;;;9.70;5.10;;;;;;;15.00;77.42;98233.02;106788;1275;22536;-76
2023/06/12 04:21:49;;;;;;;13.70;5.00;;;;;;;15.09;76.74;98237.93;107093;1275;23148;-75
2023/06/12 04:24:19;;;;;;;6.00;3.90;;;;;;;15.12;77.42;98238.58;106897;1275;22556;-75
2023/06/12 04:26:48;;;;;;;6.60;4.90;;;;;;;15.36;77.73;98242.92;107071;1275;25288;-76
2023/06/12 04:29:17;;;;;;;7.10;4.70;;;;;;;15.51;76.69;98240.28;106848;1275;22630;-76
2023/06/12 04:31:45;;;;;;;5.70;4.30;;;;;;;15.59;76.09;98241.64;106795;1275;25262;-76
2023/06/12 04:34:15;;;;;;;12.90;5.10;;;;;;;15.56;75.80;98244.13;106881;1275;22518;-76
2023/06/12 04:36:45;;;;;;;7.60;4.80;;;;;;;15.49;75.69;98242.30;106858;1275;22529;-76
2023/06/12 04:39:13;;;;;;;8.50;4.70;;;;;;;15.37;75.49;98244.17;106843;1275;22635;-77
2023/06/12 04:41:43;;;;;;;7.10;5.30;;;;;;;15.30;75.80;98247.48;106835;1275;22626;-77
2023/06/12 04:44:12;;;;;;;6.40;4.80;;;;;;;15.27;75.43;98249.97;107101;1275;22507;-77
2023/06/12 04:46:41;;;;;;;9.00;5.00;;;;;;;15.21;75.52;98251.98;107179;1275;22664;-76
2023/06/12 04:49:09;;;;;;;7.90;4.30;;;;;;;15.15;75.98;98253.06;106976;1275;22534;-76
2023/06/12 04:51:39;;;;;;;10.50;5.00;;;;;;;15.26;75.91;98254.63;106992;1275;22571;-77
2023/06/12 04:54:09;;;;;;;10.70;5.40;;;;;;;15.29;75.28;98256.02;107266;1275;22639;-77
2023/06/12 04:56:40;;;;;;;18.10;4.20;;;;;;;15.20;75.28;98255.68;107146;1275;22508;-79
2023/06/12 04:59:10;;;;;;;13.60;5.60;;;;;;;15.32;75.56;98259.40;107165;1275;24365;-79
2023/06/12 05:01:38;;;;;;;8.40;4.80;;;;;;;15.38;74.49;98261.23;107132;1275;24872;-79
2023/06/12 05:04:08;;;;;;;6.60;5.00;;;;;;;15.29;73.38;98261.68;107187;1275;22620;-82
2023/06/12 05:06:39;;;;;;;10.10;4.30;;;;;;;15.11;73.04;98260.89;107127;1275;25219;-82
2023/06/12 05:09:07;;;;;;;6.90;4.70;;;;;;;15.06;73.09;98264.45;107085;1275;22532;-80
2023/06/12 05:11:36;;;;;;;8.50;4.60;;;;;;;15.05;72.66;98268.20;107087;1275;23384;-79
2023/06/12 05:14:06;;;;;;;11.30;4.40;;;;;;;15.03;73.11;98267.33;107146;1275;22532;-79
2023/06/12 05:16:34;;;;;;;4.90;4.20;;;;;;;15.12;72.74;98263.19;106922;1275;276773;-79
2023/06/12 05:19:02;;;;;;;7.00;4.50;;;;;;;15.24;72.38;98260.60;107110;1275;22497;-78
2023/06/12 05:21:30;;;;;;;6.80;4.80;;;;;;;15.39;72.71;98264.23;107129;1275;22514;-78
2023/06/12 05:23:58;;;;;;;6.80;4.60;;;;;;;15.41;71.36;98268.98;107046;1275;22531;-78
2023/06/12 05:26:27;;;;;;;7.00;4.30;;;;;;;15.36;70.95;98262.32;107075;1275;24242;-77
2023/06/12 05:28:55;;;;;;;7.20;4.30;;;;;;;15.34;70.21;98266.15;107116;1275;22514;-78
2023/06/12 05:31:23;;;;;;;4.10;3.70;;;;;;;15.31;70.16;98270.08;107094;1275;25322;-78
2023/06/12 05:33:52;;;;;;;8.40;4.20;;;;;;;15.35;70.04;98267.45;107140;1275;24225;-78
2023/06/12 05:36:20;;;;;;;10.00;4.80;;;;;;;15.38;68.65;98272.79;107129;1275;23491;-79
2023/06/12 05:38:48;;;;;;;7.10;4.10;;;;;;;15.31;67.79;98275.95;107536;1275;22650;-78
2023/06/12 05:41:17;;;;;;;5.60;4.10;;;;;;;15.25;67.50;98277.23;107115;1275;25198;-78
2023/06/12 05:43:49;;;;;;;5.20;4.10;;;;;;;15.19;67.27;98279.38;107148;1275;22553;-80
2023/06/12 05:46:17;;;;;;;4.80;3.90;;;;;;;15.24;67.51;98277.68;107062;1253;25511;-81
2023/06/12 05:48:45;;;;;;;8.20;4.80;;;;;;;15.35;67.34;98276.60;107193;1275;24734;-81
2023/06/12 05:51:13;;;;;;;6.00;4.30;;;;;;;15.53;66.37;98275.75;107169;1275;25366;-79
2023/06/12 05:53:44;;;;;;;7.30;4.30;;;;;;;15.65;66.56;98282.44;107169;1275;23948;-79
2023/06/12 05:56:13;;;;;;;6.70;4.60;;;;;;;15.58;66.32;98283.66;107156;1275;22773;-79
2023/06/12 05:58:44;;;;;;;6.00;4.70;;;;;;;15.40;65.57;98287.67;106989;1275;22525;-91
2023/06/12 06:01:16;;;;;;;7.50;4.20;;;;;;;15.22;65.82;98291.10;107329;1275;22570;-80
2023/06/12 06:03:54;;;;;;;6.40;4.40;;;;;;;15.17;66.29;98289.46;107452;1275;24148;-86
2023/06/12 06:06:23;;;;;;;8.20;4.80;;;;;;;15.30;66.24;98285.00;107436;1275;22800;-87
2023/06/12 06:08:52;;;;;;;5.20;4.20;;;;;;;15.42;66.21;98283.64;107252;1275;25390;-84
2023/06/12 06:11:20;;;;;;;7.30;4.60;;;;;;;15.62;66.34;98285.93;107215;1275;22596;-87
2023/06/12 06:13:49;;;;;;;6.30;4.50;;;;;;;15.84;66.29;98284.95;107202;1275;23169;-87
2023/06/12 06:16:18;;;;;;;7.00;3.80;;;;;;;16.08;65.95;98280.92;107225;1275;25322;-85
2023/06/12 06:18:46;;;;;;;7.80;4.60;;;;;;;16.20;65.95;98275.17;107147;1272;22508;-85
2023/06/12 06:21:17;;;;;;;8.90;4.10;;;;;;;16.31;65.34;98275.00;107204;1275;24392;-86
2023/06/12 06:23:45;;;;;;;6.30;4.30;;;;;;;16.36;65.00;98281.35;107274;1275;23899;-85
2023/06/12 06:26:13;;;;;;;9.50;4.20;;;;;;;16.43;64.57;98278.80;107272;1275;22768;-86
2023/06/12 06:28:42;;;;;;;6.10;4.00;;;;;;;16.41;64.10;98279.11;107112;1275;22527;-86
2023/06/12 06:31:12;;;;;;;9.30;4.60;;;;;;;16.46;63.55;98280.24;107108;1275;25309;-87
2023/06/12 06:33:40;;;;;;;5.30;3.70;;;;;;;16.44;63.43;98283.99;107210;1275;25396;-84
2023/06/12 06:36:08;;;;;;;5.40;3.80;;;;;;;16.44;62.73;98282.30;107151;1259;22523;-86
2023/06/12 06:38:36;;;;;;;5.50;3.40;;;;;;;16.46;62.69;98280.65;107236;1275;23892;-86
2023/06/12 06:41:05;;;;;;;5.70;3.70;;;;;;;16.47;61.07;98280.45;107221;1275;25482;-86
2023/06/12 06:43:34;;;;;;;6.10;3.90;;;;;;;16.49;61.74;98273.92;107144;1272;23930;-85
2023/06/12 06:46:06;;;;;;;7.30;4.00;;;;;;;16.58;60.65;98280.83;107142;1275;22516;-85
2023/06/12 06:48:36;;;;;;;6.00;3.60;;;;;;;16.64;60.29;98276.37;107157;1275;25272;-84
2023/06/12 06:51:05;;;;;;;4.60;3.60;;;;;;;16.67;60.20;98283.27;107171;1264;22606;-85
2023/06/12 06:53:34;;;;;;;10.30;4.50;;;;;;;16.73;59.48;98286.45;107201;1253;22627;-89
2023/06/12 06:56:03;;;;;;;9.00;3.80;;;;;;;16.78;58.75;98289.02;107186;1275;25275;-89
2023/06/12 06:58:31;;;;;;;6.30;3.90;;;;;;;16.80;58.19;98285.36;107045;1275;22518;-80
2023/06/12 07:01:00;;;;;;;12.10;3.60;;;;;;;16.73;57.02;98286.15;107340;1275;22596;-81
2023/06/12 07:03:28;;;;;;;6.80;4.00;;;;;;;16.66;57.68;98280.96;107736;1266;25204;-81
2023/06/12 07:05:57;;;;;;;10.80;3.50;;;;;;;16.69;57.11;98285.52;107440;1268;22515;-81
2023/06/12 07:08:25;;;;;;;6.70;3.80;;;;;;;16.69;56.82;98279.23;107325;1272;22521;-81
2023/06/12 07:10:54;;;;;;;12.70;5.00;;;;;;;16.73;56.52;98278.20;107416;1275;25454;-81
2023/06/12 07:13:22;;;;;;;7.40;3.70;;;;;;;16.74;56.19;98278.64;107378;1275;25527;-80
2023/06/12 07:15:54;;;;;;;11.00;4.20;;;;;;;16.78;56.74;98284.19;107392;1276;22523;-80
2023/06/12 07:18:23;;;;;;;6.80;4.00;;;;;;;16.77;56.36;98285.33;107299;1276;24190;-80
2023/06/12 07:20:51;;;;;;;5.40;3.30;;;;;;;16.79;56.00;98285.02;107272;1276;22537;-80
2023/06/12 07:23:20;;;;;;;8.90;3.80;;;;;;;16.86;55.96;98284.96;107244;1275;23921;-80
2023/06/12 07:25:50;;;;;;;7.70;4.30;;;;;;;16.93;55.26;98280.26;107372;1275;22604;-79
2023/06/12 07:28:18;;;;;;;8.10;3.70;;;;;;;16.98;55.58;98280.83;106934;1260;22543;-78
2023/06/12 07:30:46;;;;;;;6.80;3.70;;;;;;;17.10;55.50;98276.67;107363;1275;22564;-79
2023/06/12 07:33:15;;;;;;;6.20;4.00;;;;;;;17.18;55.25;98284.31;107386;1252;24377;-78
2023/06/12 07:35:43;;;;;;;9.20;3.80;;;;;;;17.25;55.13;98279.11;107394;1275;22630;-80
2023/06/12 07:38:12;;;;;;;7.30;3.60;;;;;;;17.33;54.46;98278.30;107346;1275;23736;-79
2023/06/12 07:40:41;;;;;;;5.80;3.40;;;;;;;17.41;54.86;98277.27;107327;1275;25340;-81
2023/06/12 07:43:09;;;;;;;7.00;3.50;;;;;;;17.53;54.02;98279.79;107368;1267;24225;-78
2023/06/12 07:45:38;;;;;;;8.80;3.80;;;;;;;17.60;54.44;98285.05;107352;1275;22510;-80
2023/06/12 07:48:07;;;;;;;7.80;3.80;;;;;;;17.70;54.22;98283.88;107379;1275;22570;-81
2023/06/12 07:50:39;;;;;;;10.80;3.40;;;;;;;17.74;52.37;98284.88;107446;1275;25209;-77
2023/06/12 07:53:08;;;;;;;8.20;3.10;;;;;;;17.72;52.46;98290.19;107414;1272;25284;-76
2023/06/12 07:55:52;;;;;;;6.50;3.30;;;;;;;17.74;52.91;98288.71;106960;1275;22522;-77
2023/06/12 07:58:25;;;;;;;7.50;3.20;;;;;;;17.78;53.44;98293.14;106886;1275;22594;-77
2023/06/12 08:00:56;;;;;;;5.90;3.40;;;;;;;17.78;52.33;98292.92;106917;1275;25249;-77
2023/06/12 08:03:25;;;;;;;6.30;3.70;;;;;;;17.85;52.13;98294.51;106880;1275;22527;-83
2023/06/12 08:05:59;;;;;;;21.60;3.70;;;;;;;18.01;51.94;98289.98;107481;1275;22518;-79
2023/06/12 08:08:42;;;;;;;7.70;4.00;;;;;;;18.25;52.15;98292.88;107573;1275;22795;-77
2023/06/12 08:11:11;;;;;;;8.10;3.30;;;;;;;18.59;51.84;98293.89;107401;1269;25210;-78
2023/06/12 08:13:41;;;;;;;6.70;3.20;;;;;;;18.74;51.40;98292.24;107279;1275;24193;-78
2023/06/12 08:16:09;;;;;;;9.20;3.60;;;;;;;18.85;51.31;98293.10;107395;1275;25252;-79
2023/06/12 08:18:38;;;;;;;9.90;3.20;;;;;;;18.99;50.33;98294.53;107323;1275;25217;-80
2023/06/12 08:21:07;;;;;;;8.80;3.60;;;;;;;19.10;51.09;98297.51;107403;1275;22633;-82
2023/06/12 08:23:35;;;;;;;9.90;3.60;;;;;;;19.19;50.43;98297.54;107428;1275;24195;-79
2023/06/12 08:26:04;;;;;;;6.90;3.20;;;;;;;19.12;49.86;98304.42;107453;1275;22633;-79
2023/06/12 08:28:33;;;;;;;9.50;3.30;;;;;;;18.90;49.32;98303.20;107441;1275;25112;-80
2023/06/12 08:31:02;;;;;;;6.30;3.40;;;;;;;18.83;49.53;98295.46;107545;1275;22525;-79
2023/06/12 08:33:31;;;;;;;6.20;3.40;;;;;;;18.77;48.46;98290.98;107020;1276;22633;-79
2023/06/12 08:35:59;;;;;;;7.80;3.40;;;;;;;18.86;49.28;98289.05;107407;1270;24324;-83
2023/06/12 08:38:27;;;;;;;7.70;3.40;;;;;;;18.90;49.62;98288.88;107343;1275;23290;-78
2023/06/12 08:41:01;;;;;;;12.70;3.00;;;;;;;19.03;49.36;98288.65;107392;1275;22537;-79
2023/06/12 08:43:30;;;;;;;9.10;3.10;;;;;;;19.01;48.36;98288.48;107374;1275;22957;-80
2023/06/12 08:46:03;;;;;;;5.30;3.10;;;;;;;19.00;48.29;98287.16;107438;1275;26020;-79
2023/06/12 08:48:32;;;;;;;10.40;2.90;;;;;;;19.04;48.20;98279.45;107331;1276;22513;-80
2023/06/12 08:51:02;;;;;;;11.80;3.90;;;;;;;19.02;47.37;98290.96;107164;1270;22541;-79
2023/06/12 08:53:33;;;;;;;5.80;3.30;;;;;;;18.83;47.14;98287.51;106917;1276;24230;-78
2023/06/12 08:56:02;;;;;;;10.50;3.30;;;;;;;18.89;46.64;98281.52;107414;1270;22535;-78
2023/06/12 08:58:30;;;;;;;12.20;3.40;;;;;;;19.08;46.65;98277.69;106924;1262;22524;-78
2023/06/12 09:00:59;;;;;;;5.50;3.10;;;;;;;19.20;46.35;98280.63;107298;1276;23178;-79
2023/06/12 09:03:31;;;;;;;5.40;3.10;;;;;;;19.24;45.51;98280.90;107279;1276;22503;-79
2023/06/12 09:06:05;;;;;;;9.40;3.00;;;;;;;19.19;45.70;98279.13;107444;1276;22517;-82
2023/06/12 09:08:34;;;;;;;7.60;3.20;;;;;;;19.34;45.21;98274.14;107357;1276;25322;-81
2023/06/12 09:11:02;;;;;;;9.70;3.10;;;;;;;19.28;44.50;98277.11;107353;1276;22520;-82
2023/06/12 09:13:42;;;;;;;6.00;3.30;;;;;;;19.16;44.56;98274.80;107590;1276;23031;-84
2023/06/12 09:16:12;;;;;;;6.90;2.90;;;;;;;19.09;45.31;98280.22;107747;1276;24187;-79
2023/06/12 09:18:51;;;;;;;4.70;3.20;;;;;;;19.30;45.52;98280.67;107085;1275;26597;-83
2023/06/12 09:21:24;;;;;;;7.90;3.60;;;;;;;19.58;45.36;98278.79;107034;1275;22555;-82
2023/06/12 09:23:55;;;;;;;6.60;3.00;;;;;;;19.68;45.09;98282.94;107007;1275;22536;-83
2023/06/12 09:26:23;;;;;;;9.50;3.40;;;;;;;19.73;43.96;98293.14;107410;1275;22775;-81
2023/06/12 09:28:52;;;;;;;6.00;3.20;;;;;;;19.64;44.22;98295.06;107424;1275;22522;-81
2023/06/12 09:31:21;;;;;;;5.50;3.00;;;;;;;19.60;43.28;98294.17;107399;1275;25263;-84
2023/06/12 09:33:53;;;;;;;7.20;3.00;;;;;;;19.31;42.75;98298.28;107341;1275;25106;-83
2023/06/12 09:36:27;;;;;;;7.50;3.10;;;;;;;19.08;42.91;98289.95;107331;1275;23888;-85
2023/06/12 09:39:15;;;;;;;5.70;2.90;;;;;;;19.20;44.13;98286.63;107320;1275;24234;-83
2023/06/12 09:41:50;;;;;;;6.30;3.30;;;;;;;19.34;43.78;98286.02;107466;1275;22539;-82
2023/06/12 09:44:28;;;;;;;6.60;2.90;;;;;;;19.62;44.09;98274.63;107415;1265;22933;-81
2023/06/12 09:47:03;;;;;;;8.30;3.00;;;;;;;19.99;43.89;98273.42;107464;1272;23461;-84
2023/06/12 09:49:33;;;;;;;6.20;3.30;;;;;;;20.22;42.92;98277.85;107282;1276;25534;-79
2023/06/12 09:52:15;;;;;;;6.60;3.50;;;;;;;20.06;43.04;98280.58;107003;1275;22541;-74
2023/06/12 09:54:46;;;;;;;7.70;2.60;;;;;;;19.72;42.65;98277.33;107013;1275;22524;-76
2023/06/12 09:57:15;;;;;;;5.40;3.10;;;;;;;19.41;43.08;98273.26;107016;1275;25350;-77
2023/06/12 09:59:46;;;;;;;8.00;3.20;;;;;;;19.44;43.18;98272.72;106899;1275;22530;-77
2023/06/12 10:02:16;;;;;;;6.90;3.10;;;;;;;19.65;42.71;98267.73;107007;1275;22550;-77
2023/06/12 10:05:10;;;;;;;5.90;2.80;;;;;;;19.85;42.38;98268.54;107011;1275;24979;-77
2023/06/12 10:07:48;;;;;;;;;;;;;;;20.13;42.14;98267.00;106946;1275;24170;-77
2023/06/12 10:10:16;;;;;;;6.70;3.50;;;;;;;20.23;41.01;98271.14;106911;1275;26073;-77
2023/06/12 10:12:44;;;;;;;4.60;3.00;;;;;;;20.12;41.47;98273.84;106920;1275;25952;-77
2023/06/12 10:15:15;;;;;;;5.90;3.00;;;;;;;19.91;41.88;98272.15;106930;1275;25235;-77
2023/06/12 10:17:44;;;;;;;7.60;3.40;;;;;;;19.80;42.06;98268.02;107038;1275;22524;-77
2023/06/12 10:20:13;;;;;;;6.30;2.80;;;;;;;19.93;41.62;98258.98;107047;1275;24273;-77
2023/06/12 10:22:41;;;;;;;6.90;2.70;;;;;;;20.12;41.50;98262.28;106959;1275;23935;-77
2023/06/12 10:25:10;;;;;;;5.60;2.90;;;;;;;20.28;41.39;98261.02;106920;1275;22537;-76
2023/06/12 10:27:39;;;;;;;7.10;3.00;;;;;;;20.21;41.41;98257.50;106943;1275;22533;-75
2023/06/12 10:30:12;;;;;;;17.90;4.20;;;;;;;20.35;41.19;98259.02;106934;1276;25527;-74
2023/06/12 10:32:42;;;;;;;9.60;3.10;;;;;;;20.58;40.09;98254.48;107009;1276;22531;-75
2023/06/12 10:35:11;;;;;;;8.20;2.80;;;;;;;20.73;39.62;98256.46;106904;1276;22531;-74
2023/06/12 10:37:45;;;;;;;6.50;3.30;;;;;;;20.98;39.73;98253.26;106822;1276;25337;-78
2023/06/12 10:40:21;;;;;;;5.40;2.90;;;;;;;21.18;38.76;98250.77;107253;1276;24180;-78
2023/06/12 10:43:11;;;;;;;7.90;3.00;;;;;;;21.08;39.17;98248.84;107308;1276;22504;-79
2023/06/12 10:45:39;;;;;;;5.60;2.90;;;;;;;20.95;39.14;98252.95;107320;1276;22540;-78
2023/06/12 10:48:10;;;;;;;5.30;2.50;;;;;;;20.80;39.42;98253.89;107377;1276;22661;-78
2023/06/12 10:50:48;;;;;;;4.40;2.70;;;;;;;21.00;39.20;98249.16;107378;1276;26836;-76
2023/06/12 10:53:23;;;;;;;10.00;2.80;;;;;;;21.19;37.53;98244.53;107067;1276;22554;-79
2023/06/12 10:56:03;;;;;;;8.20;2.80;;;;;;;21.15;38.35;98241.23;107389;1276;25278;-78
2023/06/12 10:58:39;;;;;;;7.60;2.90;;;;;;;21.37;37.94;98235.35;107418;1276;22523;-78
2023/06/12 11:01:09;;;;;;;4.80;2.80;;;;;;;21.63;37.64;98236.90;106995;1276;25331;-78
2023/06/12 11:03:39;;;;;;;11.10;2.80;;;;;;;21.68;37.51;98232.11;106996;1276;22522;-78
2023/06/12 11:06:20;;;;;;;3.90;2.90;;;;;;;21.60;37.69;98229.61;107336;1276;25610;-80
2023/06/12 11:08:48;;;;;;;7.50;2.50;;;;;;;21.65;38.27;98229.08;107326;1275;22521;-79
2023/06/12 11:11:16;;;;;;;10.10;2.60;;;;;;;21.86;37.88;98227.27;107341;1275;26538;-79
2023/06/12 11:13:46;;;;;;;7.20;2.60;;;;;;;22.01;36.94;98217.72;107311;1275;22567;-79
2023/06/12 11:16:16;;;;;;;8.20;2.60;;;;;;;22.10;37.32;98212.60;107430;1275;22607;-78
2023/06/12 11:18:44;;;;;;;5.00;2.70;;;;;;;22.17;35.52;98200.27;107356;1275;24556;-80
2023/06/12 11:21:13;;;;;;;5.80;2.40;;;;;;;22.14;36.22;98205.86;107381;1275;24215;-77
2023/06/12 11:23:41;;;;;;;5.10;2.50;;;;;;;22.19;36.25;98200.16;107403;1263;24079;-77
2023/06/12 11:26:10;;;;;;;7.20;2.40;;;;;;;22.33;36.29;98205.88;106928;1275;23377;-79
2023/06/12 11:28:38;;;;;;;6.20;2.60;;;;;;;22.16;35.56;98202.77;107333;1275;22554;-79
2023/06/12 11:31:07;;;;;;;8.40;2.80;;;;;;;22.22;36.10;98198.09;107293;1267;24247;-81
2023/06/12 11:33:40;;;;;;;;;;;;;;;22.48;36.08;98194.48;107108;1276;25322;-78
2023/06/12 11:36:08;;;;;;;8.30;2.40;;;;;;;22.65;35.45;98196.29;107282;1276;22537;-80
2023/06/12 11:38:37;;;;;;;6.40;2.60;;;;;;;22.80;35.09;98192.02;107377;1276;22536;-81